This is the latest recevied weather packets stored in our database for station/object GW1482. If no packets are shown the sender has not sent any weather packets the latest 10 day(s).
| Time | Temp. | Humidity | Pressure | Rain* | Wind** | Luminosity | Snow |
|---|---|---|---|---|---|---|---|
| 1777946966 | 16.11° C | 63% | 997.9 hPa | 0 mm | - | - | - |
| 1777946597 | 16.11° C | 61% | 997.9 hPa | 0 mm | - | - | - |
| 1777945158 | 16.11° C | 63% | 997.6 hPa | 0 mm | - | - | - |
| 1777943736 | 16.11° C | 64% | 997.6 hPa | 0 mm | - | - | - |
| 1777943011 | 16.11° C | 64% | 997.9 hPa | 0 mm | - | - | - |
| 1777940113 | 16.67° C | 64% | 997.6 hPa | 0 mm | - | - | - |
| 1777939035 | 17.22° C | 61% | 997.6 hPa | 0 mm | - | - | - |
| 1777937621 | 18.89° C | 56% | 997.2 hPa | 0 mm | - | - | - |
| 1777935107 | 18.33° C | 54% | 997.9 hPa | 0 mm | - | - | - |
| 1777934376 | 18.33° C | 54% | 997.6 hPa | 0 mm | - | - | - |
| 1777933996 | 18.33° C | 55% | 997.9 hPa | 0 mm | - | - | - |
| 1777932196 | 18.33° C | 54% | 998.3 hPa | 0 mm | - | - | - |
| 1777929328 | 18.33° C | 55% | 998.3 hPa | 0 mm | - | - | - |
| 1777928990 | 18.33° C | 54% | 997.9 hPa | 0 mm | - | - | - |
| 1777927172 | 18.89° C | 51% | 997.9 hPa | 0 mm | - | - | - |
| 1777925741 | 20° C | 48% | 997.9 hPa | 0 mm | - | - | - |
| 1777923576 | 19.44° C | 49% | 997.9 hPa | 0 mm | - | - | - |
| 1777922842 | 20.56° C | 47% | 997.9 hPa | 0 mm | - | - | - |
| 1777921789 | 20° C | 47% | 997.9 hPa | 0 mm | - | - | - |
| 1777921053 | 20° C | 49% | 997.9 hPa | 0 mm | - | - | - |
| 1777920335 | 20° C | 47% | 997.9 hPa | 0 mm | - | - | - |
| 1777917800 | 18.89° C | 51% | 998.6 hPa | 0 mm | - | - | - |
| 1777917468 | 18.89° C | 52% | 998.9 hPa | 0 mm | - | - | - |
| 1777915633 | 17.22° C | 55% | 998.9 hPa | 0 mm | - | - | - |
| 1777913498 | 15° C | 62% | 999.6 hPa | 0 mm | - | - | - |
* Rain since midnight (hover to see other rain measurements)
** Current wind speed in m/s (hover to see current wind gust speed)